createdAt,value
2017-08-02T00:00:46.514Z,8.90
2017-08-02T00:03:20.896Z,9.02
2017-08-02T00:05:55.275Z,10.95
2017-08-02T00:08:30.448Z,8.50
2017-08-02T00:11:05.093Z,8.60
2017-08-02T00:13:39.520Z,8.73
2017-08-02T00:16:14.084Z,8.90
2017-08-02T00:18:48.570Z,9.20
2017-08-02T00:21:23.065Z,8.25
2017-08-02T00:23:57.501Z,8.57
2017-08-02T00:26:31.997Z,8.75
2017-08-02T00:29:06.420Z,8.38
2017-08-02T00:31:40.768Z,9.60
2017-08-02T00:34:15.117Z,9.77
2017-08-02T00:36:49.572Z,8.45
2017-08-02T00:39:23.892Z,8.73
2017-08-02T00:41:58.228Z,9.40
2017-08-02T00:44:32.582Z,8.57
2017-08-02T00:47:07.805Z,9.25
2017-08-02T00:49:42.291Z,8.55
2017-08-02T00:52:16.765Z,8.48
2017-08-02T00:54:51.956Z,8.80
2017-08-02T00:57:26.269Z,8.18
2017-08-02T01:00:00.677Z,9.25
2017-08-02T01:02:35.017Z,9.15
2017-08-02T01:05:09.386Z,7.80
2017-08-02T01:07:43.807Z,7.75
2017-08-02T01:10:18.127Z,8.73
2017-08-02T01:12:52.714Z,8.90
2017-08-02T01:15:27.118Z,8.63
2017-08-02T01:18:01.555Z,9.00
2017-08-02T01:20:35.880Z,8.65
2017-08-02T01:23:10.281Z,7.53
2017-08-02T01:25:44.636Z,8.55
2017-08-02T01:28:19.030Z,7.85
2017-08-02T01:30:53.372Z,8.40
2017-08-02T01:33:27.893Z,8.93
2017-08-02T01:36:02.227Z,7.55
2017-08-02T01:38:36.544Z,6.93
2017-08-02T01:41:10.984Z,6.85
2017-08-02T01:43:45.752Z,7.43
2017-08-02T01:46:20.045Z,7.78
2017-08-02T01:48:54.563Z,7.40
2017-08-02T01:51:29.081Z,7.87
2017-08-02T01:54:03.513Z,8.48
2017-08-02T01:56:37.822Z,8.00
2017-08-02T01:59:12.142Z,7.90
2017-08-02T02:01:46.454Z,8.57
2017-08-02T02:04:20.868Z,8.23
2017-08-02T02:06:55.210Z,8.18
2017-08-02T02:09:29.629Z,7.78
2017-08-02T02:12:04.132Z,9.05
2017-08-02T02:14:38.443Z,8.30
2017-08-02T02:17:13.161Z,8.73
2017-08-02T02:19:47.692Z,9.15
2017-08-02T02:22:22.009Z,7.50
2017-08-02T02:24:56.477Z,7.60
2017-08-02T02:27:31.865Z,7.47
2017-08-02T02:30:06.306Z,7.80
2017-08-02T02:32:41.429Z,7.65
2017-08-02T02:35:15.843Z,7.85
2017-08-02T02:37:50.223Z,8.13
2017-08-02T02:40:25.300Z,8.85
2017-08-02T02:42:59.686Z,8.05
2017-08-02T02:45:34.091Z,8.63
2017-08-02T02:48:08.654Z,7.12
2017-08-02T02:50:43.194Z,9.10
2017-08-02T02:53:17.586Z,8.10
2017-08-02T02:55:51.914Z,7.85
2017-08-02T02:58:27.078Z,9.80
2017-08-02T03:01:01.585Z,10.15
2017-08-02T03:03:36.466Z,8.60
2017-08-02T03:06:10.842Z,10.07
2017-08-02T03:08:45.321Z,9.85
2017-08-02T03:11:19.742Z,9.57
2017-08-02T03:13:54.213Z,11.20
2017-08-02T03:16:28.541Z,10.95
2017-08-02T03:19:02.973Z,10.52
2017-08-02T03:21:37.314Z,12.00
2017-08-02T03:24:11.725Z,11.05
2017-08-02T03:26:46.333Z,11.35
2017-08-02T03:29:20.805Z,11.05
2017-08-02T03:31:55.544Z,11.15
2017-08-02T03:34:29.828Z,8.70
2017-08-02T03:37:04.129Z,11.57
2017-08-02T03:39:38.593Z,8.63
2017-08-02T03:42:13.146Z,10.02
2017-08-02T03:44:47.581Z,10.05
2017-08-02T03:47:21.932Z,9.45
2017-08-02T03:49:56.362Z,9.65
2017-08-02T03:52:30.922Z,10.40
2017-08-02T03:55:05.393Z,10.15
2017-08-02T03:57:39.813Z,9.32
2017-08-02T04:00:14.254Z,9.30
2017-08-02T04:02:48.689Z,8.63
2017-08-02T04:05:23.186Z,9.40
2017-08-02T04:07:57.584Z,8.88
2017-08-02T04:10:31.893Z,10.05
2017-08-02T04:13:06.536Z,11.27
2017-08-02T04:15:41.104Z,12.35
2017-08-02T04:18:15.522Z,10.85
2017-08-02T04:20:49.913Z,10.95
2017-08-02T04:23:24.560Z,11.65
2017-08-02T04:25:58.917Z,12.25
2017-08-02T04:28:33.253Z,11.18
2017-08-02T04:31:07.740Z,11.65
2017-08-02T04:33:42.233Z,12.32
2017-08-02T04:36:16.760Z,12.98
2017-08-02T04:38:51.218Z,14.02
2017-08-02T04:41:25.669Z,13.70
2017-08-02T04:43:59.993Z,12.50
2017-08-02T04:46:34.519Z,12.48
2017-08-02T04:49:09.062Z,14.10
2017-08-02T04:51:43.514Z,13.80
2017-08-02T04:54:17.952Z,12.23
2017-08-02T04:56:52.508Z,12.90
2017-08-02T04:59:26.913Z,13.32
2017-08-02T05:02:01.430Z,12.70
2017-08-02T05:04:35.915Z,12.25
2017-08-02T05:07:10.324Z,12.57
2017-08-02T05:09:44.721Z,10.93
2017-08-02T05:12:19.267Z,11.90
2017-08-02T05:14:53.769Z,11.02
2017-08-02T05:17:28.984Z,10.20
2017-08-02T05:20:04.227Z,11.38
2017-08-02T05:22:39.333Z,11.73
2017-08-02T05:25:13.798Z,11.05
2017-08-02T05:27:48.175Z,10.85
2017-08-02T05:30:22.473Z,10.00
2017-08-02T05:32:56.912Z,10.48
2017-08-02T05:35:31.467Z,10.77
2017-08-02T05:38:05.953Z,9.57
2017-08-02T05:40:40.378Z,9.35
2017-08-02T05:43:14.744Z,9.68
2017-08-02T05:45:50.549Z,10.45
2017-08-02T05:48:25.694Z,10.07
2017-08-02T05:51:00.140Z,8.65
2017-08-02T05:53:34.557Z,10.45
2017-08-02T05:56:09.230Z,9.38
2017-08-02T05:58:43.982Z,10.18
2017-08-02T06:01:18.453Z,10.00
2017-08-02T06:03:52.755Z,9.45
2017-08-02T06:06:27.623Z,9.65
2017-08-02T06:09:02.123Z,10.50
2017-08-02T06:11:37.210Z,10.40
2017-08-02T06:14:11.569Z,10.13
2017-08-02T06:16:45.986Z,10.07
2017-08-02T06:19:20.351Z,9.25
2017-08-02T06:21:54.737Z,7.10
2017-08-02T06:24:29.263Z,8.13
2017-08-02T06:27:03.880Z,7.40
2017-08-02T06:29:38.376Z,8.63
2017-08-02T06:32:12.887Z,8.40
2017-08-02T06:34:47.361Z,8.15
2017-08-02T06:37:21.668Z,8.43
2017-08-02T06:39:56.410Z,8.05
2017-08-02T06:42:30.892Z,9.05
2017-08-02T06:45:05.542Z,8.25
2017-08-02T06:47:40.594Z,7.93
2017-08-02T06:50:14.945Z,9.07
2017-08-02T06:52:49.409Z,8.40
2017-08-02T06:55:23.888Z,7.97
2017-08-02T06:57:58.981Z,7.78
2017-08-02T07:00:33.530Z,8.73
2017-08-02T07:03:07.959Z,8.02
2017-08-02T07:05:42.400Z,7.03
2017-08-02T07:08:16.884Z,6.15
2017-08-02T07:10:52.025Z,6.87
2017-08-02T07:13:26.585Z,7.05
2017-08-02T07:16:01.084Z,6.70
2017-08-02T07:18:35.552Z,5.37
2017-08-02T07:21:10.019Z,5.15
2017-08-02T07:23:44.472Z,5.22
2017-08-02T07:26:18.853Z,6.03
2017-08-02T07:28:53.258Z,4.90
2017-08-02T07:31:27.736Z,4.72
2017-08-02T07:34:02.909Z,4.80
2017-08-02T07:36:37.253Z,4.32
2017-08-02T07:39:11.637Z,5.45
2017-08-02T07:41:46.069Z,4.07
2017-08-02T07:44:21.306Z,4.78
2017-08-02T07:46:56.675Z,5.53
2017-08-02T07:49:31.889Z,5.87
2017-08-02T07:52:06.237Z,5.22
2017-08-02T07:54:40.544Z,6.00
2017-08-02T07:57:14.964Z,4.82
2017-08-02T07:59:49.487Z,4.30
2017-08-02T08:02:24.217Z,4.30
2017-08-02T08:04:59.516Z,4.22
2017-08-02T08:07:34.060Z,3.80
2017-08-02T08:10:08.385Z,3.45
2017-08-02T08:12:43.013Z,3.80
2017-08-02T08:15:17.501Z,2.83
2017-08-02T08:17:51.931Z,3.00
2017-08-02T08:20:26.261Z,3.73
2017-08-02T08:23:00.940Z,4.33
2017-08-02T08:25:35.413Z,3.70
2017-08-02T08:28:09.810Z,3.90
2017-08-02T08:30:44.217Z,5.23
2017-08-02T08:33:19.632Z,3.20
2017-08-02T08:35:53.934Z,3.40
2017-08-02T08:38:32.783Z,3.10
2017-08-02T08:41:07.780Z,2.90
2017-08-02T08:43:42.264Z,3.27
2017-08-02T08:46:16.698Z,3.20
2017-08-02T08:48:51.069Z,4.07
2017-08-02T08:51:25.381Z,4.20
2017-08-02T08:53:59.957Z,3.53
2017-08-02T08:56:34.497Z,3.70
2017-08-02T08:59:09.600Z,3.97
2017-08-02T09:01:44.269Z,2.97
2017-08-02T09:04:18.597Z,3.00
2017-08-02T09:06:53.049Z,3.23
2017-08-02T09:09:27.405Z,3.70
2017-08-02T09:12:01.789Z,3.67
2017-08-02T09:14:37.025Z,3.50
2017-08-02T09:17:11.456Z,3.63
2017-08-02T09:19:45.768Z,4.93
2017-08-02T09:22:20.126Z,3.13
2017-08-02T09:24:54.430Z,3.40
2017-08-02T09:27:28.807Z,3.43
2017-08-02T09:30:03.239Z,4.70
2017-08-02T09:32:37.685Z,3.13
2017-08-02T09:35:12.108Z,3.53
2017-08-02T09:37:46.669Z,2.70
2017-08-02T09:40:21.932Z,2.73
2017-08-02T09:42:56.392Z,2.80
2017-08-02T09:45:30.740Z,3.20
2017-08-02T09:48:05.100Z,2.90
2017-08-02T09:50:39.542Z,3.70
2017-08-02T09:53:13.905Z,2.90
2017-08-02T09:55:48.321Z,2.97
2017-08-02T09:58:22.805Z,3.13
2017-08-02T10:00:58.016Z,3.43
2017-08-02T10:03:32.601Z,3.00
2017-08-02T10:06:07.081Z,2.67
2017-08-02T10:08:41.592Z,3.00
2017-08-02T10:11:16.102Z,3.00
2017-08-02T10:13:50.657Z,2.90
2017-08-02T10:16:25.153Z,2.60
2017-08-02T10:18:59.585Z,2.97
2017-08-02T10:21:33.857Z,3.03
2017-08-02T10:24:08.324Z,2.87
2017-08-02T10:26:42.673Z,3.37
2017-08-02T10:29:17.156Z,3.03
2017-08-02T10:31:51.585Z,3.77
2017-08-02T10:34:26.117Z,3.80
2017-08-02T10:37:00.754Z,3.77
2017-08-02T10:39:35.082Z,3.60
2017-08-02T10:42:10.253Z,3.40
2017-08-02T10:44:44.795Z,3.77
2017-08-02T10:47:19.204Z,4.37
2017-08-02T10:49:53.851Z,3.83
2017-08-02T10:52:28.121Z,4.00
2017-08-02T10:55:02.605Z,4.20
2017-08-02T10:57:37.058Z,3.20
2017-08-02T11:00:11.399Z,4.53
2017-08-02T11:02:45.745Z,4.50
2017-08-02T11:05:20.268Z,4.57
2017-08-02T11:07:54.776Z,4.23
2017-08-02T11:10:29.156Z,4.93
2017-08-02T11:13:03.607Z,3.93
2017-08-02T11:15:38.205Z,3.90
2017-08-02T11:18:12.671Z,3.93
2017-08-02T11:20:47.012Z,4.57
2017-08-02T11:23:21.347Z,3.77
2017-08-02T11:25:55.870Z,4.17
2017-08-02T11:28:30.329Z,5.03
2017-08-02T11:31:04.653Z,4.50
2017-08-02T11:33:39.220Z,5.00
2017-08-02T11:36:14.554Z,4.13
2017-08-02T11:38:48.904Z,3.87
2017-08-02T11:41:23.233Z,4.30
2017-08-02T11:43:57.657Z,3.33
2017-08-02T11:46:31.993Z,4.40
2017-08-02T11:49:06.489Z,4.20
2017-08-02T11:51:41.205Z,4.20
2017-08-02T11:54:15.569Z,3.97
2017-08-02T11:56:50.017Z,3.90
2017-08-02T11:59:24.500Z,4.13
2017-08-02T12:01:58.888Z,4.47
2017-08-02T12:04:33.437Z,3.50
2017-08-02T12:07:07.875Z,3.70
2017-08-02T12:09:42.282Z,3.77
2017-08-02T12:12:16.752Z,4.27
2017-08-02T12:14:51.814Z,4.47
2017-08-02T12:17:26.233Z,4.23
2017-08-02T12:20:00.770Z,4.43
2017-08-02T12:22:35.172Z,4.30
2017-08-02T12:25:09.650Z,4.23
2017-08-02T12:27:45.641Z,4.73
2017-08-02T12:30:20.229Z,3.87
2017-08-02T12:32:54.609Z,3.70
2017-08-02T12:35:28.986Z,4.47
2017-08-02T12:38:03.337Z,4.43
2017-08-02T12:40:37.877Z,4.97
2017-08-02T12:43:12.289Z,4.57
2017-08-02T12:45:46.810Z,5.50
2017-08-02T12:48:21.585Z,5.60
2017-08-02T12:50:56.056Z,5.87
2017-08-02T12:53:30.482Z,6.47
2017-08-02T12:56:04.888Z,5.80
2017-08-02T12:58:39.374Z,4.37
2017-08-02T13:01:13.697Z,4.90
2017-08-02T13:03:48.275Z,5.30
2017-08-02T13:06:22.700Z,5.47
2017-08-02T13:08:57.132Z,5.47
2017-08-02T13:11:31.425Z,6.00
2017-08-02T13:14:05.785Z,6.23
2017-08-02T13:16:40.100Z,6.30
2017-08-02T13:19:14.407Z,5.83
2017-08-02T13:21:48.735Z,6.47
2017-08-02T13:24:23.200Z,6.20
2017-08-02T13:26:57.520Z,5.10
2017-08-02T13:29:32.749Z,5.57
2017-08-02T13:32:07.070Z,4.10
2017-08-02T13:34:41.497Z,6.90
2017-08-02T13:37:15.922Z,4.70
2017-08-02T13:39:51.132Z,4.17
2017-08-02T13:42:25.690Z,4.00
2017-08-02T13:45:00.108Z,3.90
2017-08-02T13:47:34.464Z,3.30
2017-08-02T13:50:08.925Z,3.03
2017-08-02T13:52:43.340Z,3.30
2017-08-02T13:55:17.830Z,3.47
2017-08-02T13:57:52.373Z,3.00
2017-08-02T14:00:26.780Z,3.57
2017-08-02T14:03:01.605Z,3.47
2017-08-02T14:05:36.037Z,2.80
2017-08-02T14:08:11.345Z,3.30
2017-08-02T14:10:45.948Z,2.53
2017-08-02T14:13:21.112Z,3.20
2017-08-02T14:15:56.461Z,2.63
2017-08-02T14:18:30.893Z,3.47
2017-08-02T14:21:05.348Z,3.30
2017-08-02T14:23:39.809Z,3.50
2017-08-02T14:26:14.597Z,3.63
2017-08-02T14:28:49.018Z,3.57
2017-08-02T14:31:24.362Z,4.57
2017-08-02T14:33:58.790Z,4.30
2017-08-02T14:36:33.130Z,4.30
2017-08-02T14:39:07.583Z,4.37
2017-08-02T14:41:43.001Z,4.00
2017-08-02T14:44:17.260Z,4.83
2017-08-02T14:46:51.737Z,5.17
2017-08-02T14:49:26.784Z,4.77
2017-08-02T14:52:03.957Z,4.93
2017-08-02T14:54:39.008Z,5.10
2017-08-02T14:57:13.492Z,4.47
2017-08-02T14:59:48.046Z,4.30
2017-08-02T15:02:23.100Z,4.63
2017-08-02T15:04:57.565Z,5.23
2017-08-02T15:07:31.865Z,5.20
2017-08-02T15:10:06.186Z,4.60
2017-08-02T15:12:40.461Z,4.77
2017-08-02T15:15:15.016Z,6.23
2017-08-02T15:17:49.488Z,5.00
2017-08-02T15:20:23.989Z,6.17
2017-08-02T15:22:58.401Z,5.70
2017-08-02T15:25:32.779Z,5.50
2017-08-02T15:28:07.202Z,6.27
2017-08-02T15:30:42.912Z,5.80
2017-08-02T15:33:17.294Z,5.50
2017-08-02T15:35:51.821Z,6.17
2017-08-02T15:38:26.113Z,5.87
2017-08-02T15:41:00.705Z,6.00
2017-08-02T15:43:35.202Z,6.13
2017-08-02T15:46:09.770Z,5.43
2017-08-02T15:48:44.461Z,5.37
2017-08-02T15:51:18.997Z,5.60
2017-08-02T15:53:53.376Z,5.53
2017-08-02T15:56:27.855Z,5.77
2017-08-02T15:59:02.146Z,5.90
2017-08-02T16:01:36.633Z,6.20
2017-08-02T16:04:10.981Z,4.87
2017-08-02T16:06:45.585Z,5.17
2017-08-02T16:09:19.949Z,6.20
2017-08-02T16:11:54.594Z,5.90
2017-08-02T16:14:29.044Z,6.40
2017-08-02T16:17:03.512Z,6.53
2017-08-02T16:19:37.801Z,7.07
2017-08-02T16:22:12.214Z,8.10
2017-08-02T16:24:46.617Z,7.47
2017-08-02T16:27:20.964Z,8.50
2017-08-02T16:29:55.254Z,9.33
2017-08-02T16:32:29.810Z,11.17
2017-08-02T16:35:04.356Z,12.57
2017-08-02T16:37:38.908Z,12.23
2017-08-02T16:40:13.286Z,13.77
2017-08-02T16:42:47.627Z,12.97
2017-08-02T16:45:22.100Z,13.57
2017-08-02T16:47:56.592Z,13.77
2017-08-02T16:50:30.947Z,11.50
2017-08-02T16:53:05.684Z,12.60
2017-08-02T16:55:40.920Z,12.27
2017-08-02T16:58:15.401Z,13.30
2017-08-02T17:00:50.386Z,12.67
2017-08-02T17:03:24.913Z,13.50
2017-08-02T17:05:59.417Z,13.03
2017-08-02T17:08:33.986Z,14.53
2017-08-02T17:11:08.382Z,13.47
2017-08-02T17:13:43.502Z,13.23
2017-08-02T17:16:17.981Z,11.77
2017-08-02T17:18:52.618Z,12.47
2017-08-02T17:21:27.092Z,11.43
2017-08-02T17:24:01.544Z,11.10
2017-08-02T17:26:35.974Z,10.70
2017-08-02T17:29:10.698Z,10.17
2017-08-02T17:31:46.017Z,11.47
2017-08-02T17:34:20.529Z,11.00
2017-08-02T17:36:54.990Z,10.10
2017-08-02T17:39:29.428Z,11.70
2017-08-02T17:42:03.816Z,9.37
2017-08-02T17:44:38.281Z,10.27
2017-08-02T17:47:13.665Z,9.60
2017-08-02T17:49:48.084Z,7.80
2017-08-02T17:52:22.836Z,6.77
2017-08-02T17:54:57.254Z,6.20
2017-08-02T17:57:31.671Z,5.63
2017-08-02T18:00:05.918Z,5.30
2017-08-02T18:02:40.215Z,4.80
2017-08-02T18:05:14.624Z,5.30
2017-08-02T18:07:49.965Z,4.53
2017-08-02T18:10:24.310Z,5.45
2017-08-02T18:12:58.658Z,5.35
2017-08-02T18:15:33.341Z,4.90
2017-08-02T18:18:07.690Z,5.25
2017-08-02T18:20:42.204Z,5.03
2017-08-02T18:23:16.866Z,5.60
2017-08-02T18:25:52.035Z,4.95
2017-08-02T18:28:26.493Z,5.20
2017-08-02T18:31:01.689Z,5.63
2017-08-02T18:33:36.190Z,4.97
2017-08-02T18:36:10.562Z,4.90
2017-08-02T18:38:45.066Z,5.30
2017-08-02T18:41:19.506Z,4.60
2017-08-02T18:43:54.053Z,4.40
2017-08-02T18:46:28.328Z,5.47
2017-08-02T18:49:02.641Z,4.32
2017-08-02T18:51:37.776Z,5.70
2017-08-02T18:54:12.269Z,4.70
2017-08-02T18:56:46.692Z,5.32
2017-08-02T18:59:21.094Z,4.37
2017-08-02T19:01:55.596Z,5.90
2017-08-02T19:04:30.064Z,5.57
2017-08-02T19:07:04.567Z,6.10
2017-08-02T19:09:38.913Z,6.30
2017-08-02T19:12:13.345Z,6.28
2017-08-02T19:14:47.865Z,6.45
2017-08-02T19:17:22.348Z,6.95
2017-08-02T19:19:56.689Z,7.35
2017-08-02T19:22:30.990Z,7.78
2017-08-02T19:25:05.350Z,5.82
2017-08-02T19:27:39.811Z,6.37
2017-08-02T19:30:14.434Z,7.45
2017-08-02T19:32:48.881Z,6.47
2017-08-02T19:35:23.381Z,6.40
2017-08-02T19:37:57.858Z,6.82
2017-08-02T19:40:32.387Z,6.70
2017-08-02T19:43:06.776Z,6.68
2017-08-02T19:45:41.200Z,7.47
2017-08-02T19:48:15.633Z,8.27
2017-08-02T19:50:49.998Z,8.00
2017-08-02T19:53:24.439Z,8.70
2017-08-02T19:55:58.915Z,8.27
2017-08-02T19:58:33.362Z,7.60
2017-08-02T20:01:07.900Z,9.50
2017-08-02T20:03:42.935Z,7.72
2017-08-02T20:06:17.504Z,7.53
2017-08-02T20:08:52.592Z,8.32
2017-08-02T20:11:27.053Z,6.60
2017-08-02T20:14:01.393Z,7.30
2017-08-02T20:16:35.781Z,7.72
2017-08-02T20:19:10.185Z,14.32
2017-08-02T20:21:44.633Z,7.50
2017-08-02T20:24:19.817Z,7.85
2017-08-02T20:26:54.176Z,7.43
2017-08-02T20:29:28.545Z,6.90
2017-08-02T20:32:03.970Z,6.25
2017-08-02T20:34:38.420Z,6.62
2017-08-02T20:37:12.889Z,7.07
2017-08-02T20:39:47.177Z,6.40
2017-08-02T20:42:21.618Z,6.18
2017-08-02T20:44:55.994Z,7.07
2017-08-02T20:47:30.589Z,7.25
2017-08-02T20:50:04.949Z,6.55
2017-08-02T20:52:39.542Z,6.60
2017-08-02T20:55:13.877Z,5.90
2017-08-02T20:57:48.405Z,6.80
2017-08-02T21:00:22.785Z,6.53
2017-08-02T21:02:57.881Z,6.45
2017-08-02T21:05:32.409Z,6.15
2017-08-02T21:08:06.933Z,6.47
2017-08-02T21:10:41.234Z,6.30
2017-08-02T21:13:15.661Z,5.78
2017-08-02T21:15:50.112Z,6.60
2017-08-02T21:18:24.622Z,7.10
2017-08-02T21:20:58.936Z,6.82
2017-08-02T21:23:33.281Z,5.97
2017-08-02T21:26:07.564Z,6.60
2017-08-02T21:28:41.960Z,6.57
2017-08-02T21:31:16.288Z,5.70
2017-08-02T21:33:50.721Z,5.62
2017-08-02T21:36:25.037Z,6.70
2017-08-02T21:38:59.365Z,6.90
2017-08-02T21:41:33.645Z,6.20
2017-08-02T21:44:07.996Z,7.90
2017-08-02T21:46:42.337Z,7.87
2017-08-02T21:49:16.651Z,8.23
2017-08-02T21:51:51.260Z,8.70
2017-08-02T21:54:25.794Z,7.28
2017-08-02T21:57:00.096Z,7.45
2017-08-02T21:59:34.389Z,8.43
2017-08-02T22:02:09.065Z,8.20
2017-08-02T22:04:43.460Z,7.85
2017-08-02T22:07:17.787Z,6.55
2017-08-02T22:09:52.068Z,6.50
2017-08-02T22:12:26.389Z,7.15
2017-08-02T22:15:00.697Z,6.87
2017-08-02T22:17:35.060Z,7.25
2017-08-02T22:20:09.420Z,7.10
2017-08-02T22:22:43.978Z,8.25
2017-08-02T22:25:18.269Z,8.48
2017-08-02T22:27:52.608Z,8.45
2017-08-02T22:30:27.052Z,8.52
2017-08-02T22:33:01.720Z,9.23
2017-08-02T22:35:36.950Z,10.40
2017-08-02T22:38:11.421Z,8.82
2017-08-02T22:40:45.857Z,8.82
2017-08-02T22:43:20.223Z,9.88
2017-08-02T22:45:55.351Z,8.93
2017-08-02T22:48:29.734Z,9.65
2017-08-02T22:51:04.266Z,10.43
2017-08-02T22:53:38.770Z,10.55
2017-08-02T22:56:13.245Z,11.35
2017-08-02T22:58:48.556Z,11.70
2017-08-02T23:01:23.809Z,11.93
2017-08-02T23:03:58.572Z,11.45
2017-08-02T23:06:32.916Z,10.98
2017-08-02T23:09:07.233Z,11.15
2017-08-02T23:11:41.526Z,10.88
2017-08-02T23:14:16.012Z,11.27
2017-08-02T23:16:50.386Z,11.20
2017-08-02T23:19:24.940Z,10.73
2017-08-02T23:22:00.373Z,11.38
2017-08-02T23:24:34.709Z,11.18
2017-08-02T23:27:09.217Z,10.13
2017-08-02T23:29:43.526Z,10.55
2017-08-02T23:32:18.057Z,10.38
2017-08-02T23:34:53.194Z,9.65
2017-08-02T23:37:27.936Z,10.77
2017-08-02T23:40:02.328Z,11.07
2017-08-02T23:42:36.910Z,8.90
2017-08-02T23:45:11.422Z,10.30
2017-08-02T23:47:45.841Z,11.12
2017-08-02T23:50:20.238Z,11.10
2017-08-02T23:52:54.864Z,11.95
2017-08-02T23:55:29.284Z,13.32
2017-08-02T23:58:03.594Z,12.90
